Time;durP1;ratioP1;P1;durP2;ratioP2;P2;SDS_P1;SDS_P2;PMS_P1;PMS_P2;Temp;Humidity;BMP_temperature;BMP_pressure;BME280_temperature;BME280_humidity;BME280_pressure;Samples;Min_cycle;Max_cycle;Signal;HPM_P1;HPM_P2
2023/06/11 00:01:52;;;;;;;0.38;0.38;;;18.30;99.90;;;;;;5039502;28;20044;-65
2023/06/11 00:04:25;;;;;;;0.60;0.50;;;18.30;99.90;;;;;;5041288;28;20043;-65
2023/06/11 00:06:56;;;;;;;0.32;0.32;;;18.20;99.90;;;;;;5040473;28;20090;-65
2023/06/11 00:09:25;;;;;;;0.50;0.50;;;18.20;99.90;;;;;;5038193;28;20076;-65
2023/06/11 00:11:53;;;;;;;2.05;0.55;;;18.20;99.90;;;;;;5034697;28;20113;-65
2023/06/11 00:14:19;;;;;;;0.55;0.40;;;18.20;99.90;;;;;;5076308;28;20045;-65
2023/06/11 00:16:45;;;;;;;1.25;0.80;;;18.10;99.90;;;;;;5043531;28;20045;-65
2023/06/11 00:19:11;;;;;;;0.45;0.45;;;18.10;99.90;;;;;;5043430;28;20045;-65
2023/06/11 00:21:43;;;;;;;0.22;0.20;;;18.10;99.90;;;;;;5073136;28;20044;-65
2023/06/11 00:24:14;;;;;;;0.50;0.50;;;18.10;99.90;;;;;;5035085;28;20120;-65
2023/06/11 00:26:40;;;;;;;0.80;0.38;;;18.10;99.90;;;;;;5041848;28;20045;-66
2023/06/11 00:29:07;;;;;;;0.35;0.35;;;18.10;99.90;;;;;;5036647;28;20055;-65
2023/06/11 00:31:32;;;;;;;0.32;0.25;;;18.00;99.90;;;;;;5076094;28;20053;-65
2023/06/11 00:34:00;;;;;;;0.85;0.55;;;18.00;99.90;;;;;;5038158;28;20022;-65
2023/06/11 00:36:26;;;;;;;0.10;0.10;;;18.00;99.90;;;;;;5040157;28;20044;-65
2023/06/11 00:38:53;;;;;;;1.73;1.27;;;18.00;99.90;;;;;;5036178;28;20567;-64
2023/06/11 00:41:18;;;;;;;6.70;1.40;;;18.00;99.90;;;;;;5041701;28;20116;-65
2023/06/11 00:43:44;;;;;;;0.40;0.40;;;18.00;99.90;;;;;;5073350;28;20128;-65
2023/06/11 00:46:10;;;;;;;0.20;0.20;;;17.90;99.90;;;;;;5039368;28;20625;-65
2023/06/11 00:48:38;;;;;;;0.68;0.47;;;17.90;99.90;;;;;;5074103;28;20511;-64
2023/06/11 00:51:05;;;;;;;0.38;0.25;;;17.80;99.90;;;;;;5077500;28;20052;-65
2023/06/11 00:53:30;;;;;;;0.63;0.63;;;17.80;99.90;;;;;;5043006;28;20049;-64
2023/06/11 00:55:56;;;;;;;18.20;0.90;;;17.80;99.90;;;;;;5045639;28;20047;-65
2023/06/11 00:58:22;;;;;;;0.50;0.50;;;17.80;99.90;;;;;;5043120;28;20045;-64
2023/06/11 01:00:52;;;;;;;1.90;0.57;;;17.70;99.90;;;;;;5071441;28;20203;-64
2023/06/11 01:03:21;;;;;;;1.23;1.08;;;17.70;99.90;;;;;;5046265;28;20045;-65
2023/06/11 01:06:01;;;;;;;3.83;0.57;;;17.70;99.90;;;;;;5043025;28;20476;-65
2023/06/11 01:08:29;;;;;;;0.45;0.43;;;17.70;99.90;;;;;;5044321;28;20132;-65
2023/06/11 01:10:59;;;;;;;1.15;1.00;;;17.60;99.90;;;;;;5078258;28;20033;-65
2023/06/11 01:13:25;;;;;;;0.80;0.80;;;17.70;99.90;;;;;;5074047;28;20052;-65
2023/06/11 01:15:55;;;;;;;0.30;0.30;;;17.70;99.90;;;;;;5077803;28;20094;-65
2023/06/11 01:18:28;;;;;;;0.68;0.68;;;17.60;99.90;;;;;;5038942;28;20158;-65
2023/06/11 01:21:09;;;;;;;2.30;1.02;;;17.60;99.90;;;;;;5040238;28;20069;-64
2023/06/11 01:24:03;;;;;;;3.83;0.80;;;17.60;99.90;;;;;;5073526;28;20502;-64
2023/06/11 01:26:43;;;;;;;2.65;0.80;;;17.70;99.90;;;;;;5043584;28;20037;-65
2023/06/11 01:29:09;;;;;;;0.43;0.43;;;17.70;99.90;;;;;;5037831;28;20033;-64
2023/06/11 01:31:40;;;;;;;0.25;0.25;;;17.70;99.90;;;;;;5044844;28;20069;-64
2023/06/11 01:34:06;;;;;;;0.30;0.30;;;17.70;99.90;;;;;;5041649;28;20041;-65
2023/06/11 01:36:36;;;;;;;0.77;0.77;;;17.70;99.90;;;;;;5043591;28;20137;-65
2023/06/11 01:39:04;;;;;;;1.10;0.55;;;17.70;99.90;;;;;;5044612;28;20047;-64
2023/06/11 01:41:30;;;;;;;0.20;0.20;;;17.70;99.90;;;;;;5044161;28;20203;-65
2023/06/11 01:43:56;;;;;;;0.25;0.25;;;17.70;99.90;;;;;;5037649;28;20544;-64
2023/06/11 01:46:22;;;;;;;1.50;0.82;;;17.60;99.90;;;;;;5037231;28;20037;-65
2023/06/11 01:48:48;;;;;;;0.73;0.32;;;17.60;99.90;;;;;;5038019;28;20119;-65
2023/06/11 01:51:14;;;;;;;0.38;0.38;;;17.60;99.90;;;;;;5035474;28;21348;-65
2023/06/11 01:53:40;;;;;;;3.22;1.35;;;17.60;99.90;;;;;;5040637;28;20044;-64
2023/06/11 01:56:06;;;;;;;1.45;1.10;;;17.60;99.90;;;;;;5039247;28;20480;-65
2023/06/11 01:58:32;;;;;;;2.08;1.00;;;17.60;99.90;;;;;;5040132;28;20275;-65
2023/06/11 02:00:58;;;;;;;0.17;0.17;;;17.50;99.90;;;;;;5037218;28;20045;-64
2023/06/11 02:03:24;;;;;;;3.25;1.50;;;17.60;99.90;;;;;;5070672;28;20040;-64
2023/06/11 02:05:50;;;;;;;1.60;0.60;;;17.50;99.90;;;;;;5041904;28;20043;-64
2023/06/11 02:08:15;;;;;;;0.35;0.35;;;17.50;99.90;;;;;;5041333;28;20095;-64
2023/06/11 02:10:43;;;;;;;0.88;0.45;;;17.50;99.90;;;;;;5071109;28;20037;-65
2023/06/11 02:13:09;;;;;;;0.50;0.40;;;17.50;99.90;;;;;;5036789;28;20045;-65
2023/06/11 02:15:35;;;;;;;3.40;0.28;;;17.50;99.90;;;;;;5067962;28;20451;-65
2023/06/11 02:18:00;;;;;;;1.23;1.13;;;17.50;99.90;;;;;;5033770;28;20438;-65
2023/06/11 02:20:26;;;;;;;3.25;0.65;;;17.50;99.90;;;;;;5038311;28;20037;-65
2023/06/11 02:22:51;;;;;;;0.20;0.20;;;17.50;99.90;;;;;;5073730;28;20094;-65
2023/06/11 02:25:17;;;;;;;0.95;0.60;;;17.50;99.90;;;;;;5040278;28;20511;-65
2023/06/11 02:27:42;;;;;;;0.50;0.50;;;17.50;99.90;;;;;;5036610;28;20037;-65
2023/06/11 02:30:08;;;;;;;2.90;1.65;;;17.40;99.90;;;;;;5037452;28;20037;-65
2023/06/11 02:32:34;;;;;;;0.20;0.20;;;17.40;99.90;;;;;;5035846;28;20055;-64
2023/06/11 02:35:00;;;;;;;0.73;0.60;;;17.40;99.90;;;;;;5039762;28;20479;-65
2023/06/11 02:37:25;;;;;;;0.95;0.85;;;17.30;99.90;;;;;;5033948;28;20037;-64
2023/06/11 02:39:51;;;;;;;1.38;0.82;;;17.30;99.90;;;;;;5039981;28;20036;-65
2023/06/11 02:42:16;;;;;;;0.98;0.93;;;17.30;99.90;;;;;;5058168;28;20652;-65
2023/06/11 02:44:42;;;;;;;2.35;0.52;;;17.30;99.90;;;;;;5034686;28;20506;-65
2023/06/11 02:47:08;;;;;;;1.13;1.02;;;17.30;99.90;;;;;;5037425;28;20055;-65
2023/06/11 02:49:34;;;;;;;0.47;0.47;;;17.30;99.90;;;;;;5042925;28;20044;-65
2023/06/11 02:52:00;;;;;;;1.13;0.77;;;17.20;99.90;;;;;;5037843;28;20041;-65
2023/06/11 02:54:25;;;;;;;0.73;0.70;;;17.20;99.90;;;;;;5040962;28;20044;-65
2023/06/11 02:56:51;;;;;;;1.67;0.40;;;17.20;99.90;;;;;;5038254;28;20048;-65
2023/06/11 02:59:17;;;;;;;0.93;0.30;;;17.20;99.90;;;;;;5038285;28;20044;-65
2023/06/11 03:01:42;;;;;;;1.75;0.80;;;17.20;99.90;;;;;;5061912;28;20040;-65
2023/06/11 03:04:08;;;;;;;0.68;0.50;;;17.20;99.90;;;;;;5038088;28;20108;-65
2023/06/11 03:06:33;;;;;;;9.65;0.75;;;17.10;99.90;;;;;;5039180;28;20719;-65
2023/06/11 03:08:59;;;;;;;1.15;0.70;;;17.10;99.90;;;;;;5031588;28;20049;-65
2023/06/11 03:11:25;;;;;;;0.75;0.40;;;17.10;99.90;;;;;;5071138;28;20033;-65
2023/06/11 03:13:51;;;;;;;0.70;0.70;;;17.10;99.90;;;;;;5068150;28;20048;-65
2023/06/11 03:16:17;;;;;;;0.60;0.38;;;17.10;99.90;;;;;;5067714;28;20041;-65
2023/06/11 03:18:43;;;;;;;0.82;0.82;;;17.10;99.90;;;;;;5036706;28;20049;-65
2023/06/11 03:21:10;;;;;;;3.47;0.52;;;17.10;99.90;;;;;;5033909;28;20131;-65
2023/06/11 03:23:35;;;;;;;2.72;0.75;;;17.00;99.90;;;;;;5065859;28;20376;-65
2023/06/11 03:26:01;;;;;;;1.83;0.70;;;17.10;99.90;;;;;;5037588;28;20487;-65
2023/06/11 03:28:26;;;;;;;0.80;0.80;;;17.10;99.90;;;;;;5033326;28;20106;-65
2023/06/11 03:30:52;;;;;;;2.33;0.65;;;17.00;99.90;;;;;;5036631;28;20059;-65
2023/06/11 03:33:18;;;;;;;1.35;0.73;;;17.00;99.90;;;;;;5034110;28;20041;-65
2023/06/11 03:35:43;;;;;;;0.63;0.63;;;17.00;99.90;;;;;;5035423;28;20041;-66
2023/06/11 03:38:09;;;;;;;0.28;0.28;;;17.00;99.90;;;;;;5035285;28;20083;-66
2023/06/11 03:40:35;;;;;;;1.13;0.70;;;17.00;99.90;;;;;;5039666;28;20036;-65
2023/06/11 03:43:00;;;;;;;0.38;0.38;;;17.00;99.90;;;;;;5056262;28;20132;-65
2023/06/11 03:45:26;;;;;;;1.02;0.90;;;17.00;99.90;;;;;;5036905;28;20520;-65
2023/06/11 03:47:55;;;;;;;2.75;1.65;;;17.10;99.90;;;;;;5036075;28;20500;-65
2023/06/11 03:50:24;;;;;;;0.93;0.55;;;17.00;99.90;;;;;;5032301;28;20045;-65
2023/06/11 03:52:50;;;;;;;0.40;0.32;;;17.10;99.90;;;;;;5039916;28;20321;-65
2023/06/11 03:55:15;;;;;;;0.40;0.40;;;17.10;99.90;;;;;;5040296;28;20503;-64
2023/06/11 03:57:41;;;;;;;1.10;0.93;;;17.10;99.90;;;;;;5034808;28;20045;-65
2023/06/11 04:00:08;;;;;;;1.00;0.50;;;17.10;99.90;;;;;;5034757;28;20044;-65
2023/06/11 04:02:37;;;;;;;0.88;0.88;;;17.10;99.90;;;;;;5033975;28;20047;-66
2023/06/11 04:05:03;;;;;;;0.60;0.60;;;17.20;99.90;;;;;;5039424;28;20036;-64
2023/06/11 04:07:29;;;;;;;0.68;0.68;;;17.20;99.90;;;;;;5036152;28;20037;-65
2023/06/11 04:09:54;;;;;;;0.30;0.30;;;17.20;99.90;;;;;;5023205;28;20033;-65
2023/06/11 04:12:20;;;;;;;0.20;0.20;;;17.20;99.90;;;;;;5070157;28;20060;-65
2023/06/11 04:14:45;;;;;;;1.70;0.60;;;17.20;99.90;;;;;;5036421;28;20051;-65
2023/06/11 04:17:11;;;;;;;2.10;0.45;;;17.30;99.90;;;;;;5053730;28;20049;-65
2023/06/11 04:19:36;;;;;;;0.80;0.73;;;17.30;99.90;;;;;;5055903;28;20132;-65
2023/06/11 04:22:02;;;;;;;0.38;0.38;;;17.30;99.90;;;;;;5034696;28;20041;-65
2023/06/11 04:24:28;;;;;;;1.85;0.65;;;17.30;99.90;;;;;;5038500;28;20132;-65
2023/06/11 04:26:53;;;;;;;3.10;1.08;;;17.40;99.90;;;;;;5035273;28;20076;-65
2023/06/11 04:29:20;;;;;;;0.95;0.70;;;17.40;99.90;;;;;;5068683;28;20045;-65
2023/06/11 04:31:47;;;;;;;0.25;0.25;;;17.50;99.90;;;;;;5035939;28;20041;-66
2023/06/11 04:34:13;;;;;;;1.98;1.42;;;17.50;99.90;;;;;;5071616;28;20037;-65
2023/06/11 04:36:40;;;;;;;0.60;0.60;;;17.60;99.90;;;;;;5034830;28;20121;-65
2023/06/11 04:39:07;;;;;;;0.20;0.20;;;17.70;99.90;;;;;;5035270;28;20040;-65
2023/06/11 04:41:36;;;;;;;1.60;0.65;;;17.70;99.90;;;;;;5035500;28;20668;-64
2023/06/11 04:44:02;;;;;;;1.15;0.68;;;17.80;99.90;;;;;;5032956;28;20041;-64
2023/06/11 04:46:27;;;;;;;2.00;0.77;;;17.80;99.90;;;;;;5034765;28;20520;-65
2023/06/11 04:48:56;;;;;;;0.25;0.25;;;17.90;99.90;;;;;;5068113;28;20041;-64
2023/06/11 04:51:23;;;;;;;0.32;0.30;;;17.90;99.90;;;;;;5064967;28;20131;-65
2023/06/11 04:53:52;;;;;;;0.38;0.38;;;18.00;99.90;;;;;;5035025;28;20040;-65
2023/06/11 04:56:17;;;;;;;1.00;0.20;;;18.10;99.90;;;;;;5033431;28;20060;-65
2023/06/11 04:58:43;;;;;;;2.03;0.63;;;18.20;99.90;;;;;;5063596;28;20503;-65
2023/06/11 05:01:09;;;;;;;4.28;0.60;;;18.30;99.90;;;;;;5034054;28;20499;-65
2023/06/11 05:03:37;;;;;;;0.28;0.25;;;18.30;99.90;;;;;;5033480;28;20050;-65
2023/06/11 05:06:04;;;;;;;0.80;0.80;;;18.40;99.90;;;;;;5043809;28;20049;-64
2023/06/11 05:08:29;;;;;;;0.30;0.28;;;18.50;99.90;;;;;;5073185;28;20045;-65
2023/06/11 05:10:58;;;;;;;1.88;1.10;;;18.60;99.90;;;;;;5071351;28;20041;-65
2023/06/11 05:13:25;;;;;;;2.90;0.65;;;18.70;99.90;;;;;;5039312;28;20055;-65
2023/06/11 05:15:55;;;;;;;1.75;0.50;;;18.70;99.90;;;;;;5073525;28;20041;-65
2023/06/11 05:18:21;;;;;;;0.68;0.38;;;18.80;99.90;;;;;;5037888;28;20060;-65
2023/06/11 05:20:48;;;;;;;0.75;0.70;;;18.90;99.90;;;;;;5041125;28;20637;-66
2023/06/11 05:23:14;;;;;;;0.82;0.82;;;19.00;99.90;;;;;;5039766;28;20037;-65
2023/06/11 05:25:46;;;;;;;0.50;0.50;;;19.20;99.90;;;;;;5041409;28;20042;-65
2023/06/11 05:28:13;;;;;;;0.60;0.60;;;19.30;99.90;;;;;;5043796;28;20546;-65
2023/06/11 05:30:39;;;;;;;2.33;0.88;;;19.30;99.90;;;;;;5046503;28;20033;-65
2023/06/11 05:33:05;;;;;;;1.20;0.60;;;19.50;99.90;;;;;;5039802;28;20095;-65
2023/06/11 05:35:31;;;;;;;0.68;0.68;;;19.60;99.90;;;;;;5048398;28;20404;-64
2023/06/11 05:37:57;;;;;;;0.47;0.47;;;19.60;99.90;;;;;;5070085;28;21247;-65
2023/06/11 05:40:23;;;;;;;1.65;0.73;;;19.80;99.90;;;;;;5045656;28;20045;-64
2023/06/11 05:42:49;;;;;;;1.17;0.88;;;19.90;99.90;;;;;;5041370;28;20032;-65
2023/06/11 05:45:15;;;;;;;1.45;0.80;;;20.00;99.90;;;;;;5044390;28;20055;-65
2023/06/11 05:47:40;;;;;;;1.75;0.52;;;20.10;99.90;;;;;;5034765;28;20034;-65
2023/06/11 05:50:06;;;;;;;0.20;0.20;;;20.30;99.90;;;;;;5042539;28;20098;-64
2023/06/11 05:52:32;;;;;;;0.68;0.68;;;20.40;99.90;;;;;;5040500;28;20044;-65
2023/06/11 05:54:58;;;;;;;0.75;0.70;;;20.50;99.90;;;;;;5077954;28;20040;-65
2023/06/11 05:57:24;;;;;;;1.10;0.50;;;20.60;99.90;;;;;;5038532;28;20079;-65
2023/06/11 05:59:51;;;;;;;2.13;1.75;;;20.70;99.90;;;;;;5041408;28;20064;-64
2023/06/11 06:02:17;;;;;;;1.55;1.30;;;20.70;99.90;;;;;;5035859;28;20076;-65
2023/06/11 06:04:46;;;;;;;1.38;0.80;;;20.80;99.90;;;;;;5036473;28;20391;-65
2023/06/11 06:07:12;;;;;;;0.85;0.85;;;20.90;99.90;;;;;;5040066;28;20052;-65
2023/06/11 06:09:39;;;;;;;2.03;0.30;;;21.00;99.90;;;;;;5039361;28;20033;-64
2023/06/11 06:12:05;;;;;;;0.60;0.60;;;21.10;99.90;;;;;;5036146;28;20886;-64
2023/06/11 06:14:31;;;;;;;1.40;0.73;;;21.20;99.90;;;;;;5036210;28;20047;-65
2023/06/11 06:16:57;;;;;;;1.75;0.90;;;21.30;99.90;;;;;;5038728;28;20068;-64
2023/06/11 06:19:23;;;;;;;0.77;0.68;;;21.30;99.90;;;;;;5036687;28;20505;-65
2023/06/11 06:21:48;;;;;;;1.55;0.85;;;21.50;99.90;;;;;;5038062;28;20040;-64
2023/06/11 06:24:14;;;;;;;1.38;0.88;;;21.50;99.90;;;;;;5040954;28;20126;-64
2023/06/11 06:26:40;;;;;;;0.90;0.45;;;21.60;99.90;;;;;;5037082;28;20048;-65
2023/06/11 06:29:09;;;;;;;1.38;0.85;;;21.70;99.90;;;;;;5038188;28;20541;-64
2023/06/11 06:31:38;;;;;;;1.52;0.70;;;21.80;99.90;;;;;;5037894;28;20029;-65
2023/06/11 06:34:04;;;;;;;1.05;0.60;;;21.90;99.90;;;;;;5040785;28;21364;-64
2023/06/11 06:36:30;;;;;;;1.77;0.90;;;22.10;99.90;;;;;;5034424;28;20072;-65
2023/06/11 06:38:55;;;;;;;1.80;0.70;;;22.10;99.90;;;;;;5067180;28;20119;-64
2023/06/11 06:41:21;;;;;;;0.30;0.30;;;22.20;99.90;;;;;;5037744;28;20467;-65
2023/06/11 06:43:46;;;;;;;0.88;0.85;;;22.30;99.90;;;;;;5037971;28;20037;-64
2023/06/11 06:46:12;;;;;;;0.47;0.47;;;22.40;99.90;;;;;;5070998;28;20044;-65
2023/06/11 06:48:38;;;;;;;0.68;0.60;;;22.50;99.90;;;;;;5036691;28;20041;-65
2023/06/11 06:51:03;;;;;;;0.85;0.65;;;22.60;99.90;;;;;;5038695;28;20042;-66
2023/06/11 06:53:29;;;;;;;1.10;0.55;;;22.70;99.90;;;;;;5036658;28;20071;-66
2023/06/11 06:55:55;;;;;;;0.77;0.75;;;22.70;99.90;;;;;;5040151;28;20033;-65
2023/06/11 06:58:20;;;;;;;1.50;1.00;;;22.80;99.90;;;;;;5038830;28;20488;-65
2023/06/11 07:00:46;;;;;;;0.95;0.88;;;22.90;99.90;;;;;;5035814;28;20403;-65
2023/06/11 07:03:13;;;;;;;0.80;0.80;;;23.00;99.90;;;;;;5034141;28;20531;-65
2023/06/11 07:05:41;;;;;;;1.13;0.75;;;23.10;99.90;;;;;;5068426;28;20086;-64
2023/06/11 07:08:08;;;;;;;1.95;0.63;;;23.20;99.90;;;;;;5035342;28;20033;-65
2023/06/11 07:10:34;;;;;;;0.57;0.57;;;23.30;99.90;;;;;;5032944;28;20057;-65
2023/06/11 07:13:00;;;;;;;0.60;0.60;;;23.40;99.90;;;;;;5037103;28;20036;-65
2023/06/11 07:15:25;;;;;;;0.50;0.50;;;23.50;99.90;;;;;;5036716;28;20037;-65
2023/06/11 07:17:51;;;;;;;0.93;0.75;;;23.60;99.90;;;;;;5039150;28;20423;-65
2023/06/11 07:20:16;;;;;;;1.73;1.13;;;23.70;99.90;;;;;;5034045;28;20520;-65
2023/06/11 07:22:42;;;;;;;2.33;1.95;;;23.80;99.90;;;;;;5037478;28;20087;-65
2023/06/11 07:25:08;;;;;;;1.35;1.02;;;23.90;99.90;;;;;;5036058;28;20044;-65
2023/06/11 07:27:33;;;;;;;0.98;0.80;;;24.00;99.90;;;;;;5033023;28;20041;-65
2023/06/11 07:29:59;;;;;;;3.03;1.13;;;24.10;99.90;;;;;;5040703;28;20090;-65
2023/06/11 07:32:25;;;;;;;0.40;0.40;;;24.20;99.90;;;;;;5035553;28;20029;-65
2023/06/11 07:34:50;;;;;;;1.00;0.65;;;24.30;99.90;;;;;;5040178;28;20041;-65
2023/06/11 07:37:16;;;;;;;0.80;0.45;;;24.40;99.90;;;;;;5034981;28;20045;-65
2023/06/11 07:39:41;;;;;;;0.82;0.82;;;24.40;99.90;;;;;;5068355;28;20069;-64
2023/06/11 07:42:07;;;;;;;0.45;0.40;;;24.60;99.90;;;;;;5037845;28;20033;-65
2023/06/11 07:44:33;;;;;;;1.77;0.65;;;24.60;99.90;;;;;;5038967;28;20037;-64
2023/06/11 07:46:58;;;;;;;1.17;0.68;;;24.70;99.90;;;;;;5036204;28;20606;-65
2023/06/11 07:49:24;;;;;;;1.27;1.20;;;24.80;99.90;;;;;;5036229;28;20293;-65
2023/06/11 07:51:50;;;;;;;2.45;1.17;;;24.90;99.90;;;;;;5037790;28;20041;-65
2023/06/11 07:54:15;;;;;;;0.43;0.40;;;24.90;99.90;;;;;;5038516;28;20442;-65
2023/06/11 07:56:41;;;;;;;2.28;1.73;;;25.00;99.90;;;;;;5040160;28;20029;-65
2023/06/11 07:59:07;;;;;;;1.45;1.35;;;25.10;99.90;;;;;;5034082;28;20033;-65
2023/06/11 08:01:33;;;;;;;1.80;1.42;;;25.10;99.90;;;;;;5059028;28;20480;-65
2023/06/11 08:03:58;;;;;;;1.27;1.00;;;25.20;99.90;;;;;;5042427;28;20067;-65
2023/06/11 08:06:24;;;;;;;4.22;1.52;;;25.20;99.90;;;;;;5044001;28;20111;-65
2023/06/11 08:08:50;;;;;;;1.35;1.00;;;25.30;99.90;;;;;;5035123;28;20168;-64
2023/06/11 08:11:16;;;;;;;1.98;1.85;;;25.40;99.90;;;;;;5042199;28;20048;-65
2023/06/11 08:13:42;;;;;;;0.93;0.93;;;25.50;99.90;;;;;;5044175;28;20563;-65
2023/06/11 08:16:08;;;;;;;1.83;0.88;;;25.50;99.90;;;;;;5035423;28;20041;-65
2023/06/11 08:18:34;;;;;;;1.90;1.50;;;25.60;99.90;;;;;;5040535;28;20573;-65
2023/06/11 08:21:00;;;;;;;1.05;0.98;;;25.70;99.90;;;;;;5036064;28;20051;-65
2023/06/11 08:23:26;;;;;;;2.25;1.02;;;25.80;99.90;;;;;;5035527;28;20041;-65
2023/06/11 08:25:52;;;;;;;0.73;0.70;;;25.80;99.90;;;;;;5038015;28;20053;-65
2023/06/11 08:28:18;;;;;;;2.28;1.48;;;25.80;99.90;;;;;;5034682;28;20106;-64
2023/06/11 08:30:43;;;;;;;4.22;1.58;;;25.90;99.90;;;;;;5048409;28;20375;-64
2023/06/11 08:33:09;;;;;;;1.42;1.05;;;25.90;99.90;;;;;;5041201;28;20037;-65
2023/06/11 08:35:35;;;;;;;2.67;1.63;;;26.00;99.90;;;;;;5048317;28;20526;-65
2023/06/11 08:38:00;;;;;;;5.22;0.80;;;26.00;99.90;;;;;;5036795;28;20047;-65
2023/06/11 08:40:27;;;;;;;1.45;0.90;;;26.20;99.90;;;;;;5038400;28;20045;-66
2023/06/11 08:42:53;;;;;;;0.90;0.65;;;26.30;99.90;;;;;;5037107;28;20490;-66
2023/06/11 08:45:18;;;;;;;1.10;0.75;;;26.30;99.90;;;;;;5043063;28;20127;-65
2023/06/11 08:47:52;;;;;;;1.48;1.02;;;26.40;99.90;;;;;;5036436;28;20033;-65
2023/06/11 08:50:24;;;;;;;3.47;1.00;;;26.50;99.90;;;;;;5038980;28;20409;-65
2023/06/11 08:52:51;;;;;;;3.97;1.85;;;26.60;99.90;;;;;;5070145;28;20037;-65
2023/06/11 08:55:17;;;;;;;4.57;1.52;;;26.70;99.90;;;;;;5040759;28;20392;-65
2023/06/11 08:57:43;;;;;;;0.82;0.80;;;26.90;99.90;;;;;;5036023;28;20048;-65
2023/06/11 09:00:10;;;;;;;2.17;1.50;;;27.00;99.90;;;;;;5045201;28;20032;-65
2023/06/11 09:02:36;;;;;;;0.55;0.50;;;27.00;99.90;;;;;;5044942;28;20064;-65
2023/06/11 09:05:05;;;;;;;2.15;1.00;;;27.10;99.90;;;;;;5041764;28;20171;-65
2023/06/11 09:07:30;;;;;;;4.07;1.80;;;27.20;99.90;;;;;;5042035;28;20417;-65
2023/06/11 09:10:07;;;;;;;1.02;0.88;;;27.30;99.90;;;;;;5038573;28;20479;-66
2023/06/11 09:12:33;;;;;;;3.45;1.80;;;27.30;99.90;;;;;;5043554;28;20037;-65
2023/06/11 09:14:59;;;;;;;1.38;1.27;;;27.40;99.90;;;;;;5047234;28;20051;-66
2023/06/11 09:17:26;;;;;;;1.13;1.02;;;27.50;99.90;;;;;;5049815;28;20048;-65
2023/06/11 09:19:54;;;;;;;1.20;0.90;;;27.60;99.90;;;;;;5047721;28;20098;-66
2023/06/11 09:22:26;;;;;;;1.15;0.95;;;27.70;99.90;;;;;;5039466;28;20041;-66
2023/06/11 09:24:52;;;;;;;1.02;0.93;;;27.70;99.90;;;;;;5076536;28;20048;-65
2023/06/11 09:27:20;;;;;;;1.38;1.27;;;27.80;99.90;;;;;;5046773;28;20060;-65
2023/06/11 09:29:46;;;;;;;1.38;1.27;;;27.80;99.90;;;;;;5041795;28;20040;-66
2023/06/11 09:32:12;;;;;;;1.80;1.58;;;27.80;99.90;;;;;;5040891;28;20033;-65
2023/06/11 09:34:38;;;;;;;2.50;0.85;;;27.90;99.90;;;;;;5046450;28;20044;-65
2023/06/11 09:37:03;;;;;;;1.25;0.93;;;28.00;99.90;;;;;;5039723;28;20077;-65
2023/06/11 09:39:30;;;;;;;1.02;0.80;;;28.10;99.90;;;;;;5045063;28;20052;-64
2023/06/11 09:41:56;;;;;;;1.02;0.93;;;28.10;99.90;;;;;;5065442;28;20075;-64
2023/06/11 09:44:23;;;;;;;5.03;1.42;;;28.20;99.90;;;;;;5044431;28;20064;-65
2023/06/11 09:46:50;;;;;;;1.95;1.15;;;28.30;99.90;;;;;;5043591;28;20144;-64
2023/06/11 09:49:16;;;;;;;1.73;1.02;;;28.30;99.90;;;;;;5044228;28;20047;-65
2023/06/11 09:51:44;;;;;;;0.63;0.63;;;28.40;99.90;;;;;;5079587;28;20041;-65
2023/06/11 09:54:12;;;;;;;1.13;0.65;;;28.40;99.90;;;;;;5040183;28;20119;-65
2023/06/11 09:56:38;;;;;;;1.17;0.93;;;28.50;99.90;;;;;;5046404;28;20037;-65
2023/06/11 09:59:05;;;;;;;2.33;1.30;;;28.50;99.90;;;;;;5044642;28;20033;-66
